Skip to main content

NOAA/GLERL Met Station at Muskegon, MI

Previous 5 days (top of hour only)
See also Previous 3 Hours (2 minute increments)
Jump down to Data
Switch to [English][Metric]
Zoom: Click and drag, Pan: shift-click and drag, Unzoom: double-click, Unzoom All






Note: Speed = mean wind during 2-minute period at top of hour,
Gust = max wind during 2-minute period at top of hour,
Peak = max wind during entire hour.
• See also 5-day windrose plot


NOAA/GLERL Met Station at Muskegon, MI

Previous 5 days (top of hour only)
See also Previous 3 Hours (2 minute increments)
Jump up to Graphs
Switch to [English][Metric]
                  Wind  Wind  Wind   Air   Dew   Rel     Sta   PAR
                   Spd   Gst   Dir  Temp    Pt   Hum    Pres uE/m2/
YYYY-MM-DD   EDT   kts   kts   deg     F     F     %   in Hg   sec
2018-04-24 02:00   8.2   8.4   191  48.7  42.3  78.1   29.48     2
2018-04-24 01:00  13.2  14.0   187  48.2  42.5  80.3   29.47     2
2018-04-24 00:00  18.3  19.1   186  49.1  41.4  74.5   29.47     2
2018-04-23 23:00  19.8  21.6   190  51.1  43.0  73.5   29.48     2
2018-04-23 22:00   4.5   5.4    57  54.9  36.4  49.4   29.45     2
2018-04-23 21:00   6.2   6.8    35  46.8  39.9  76.7   29.45     2
2018-04-23 20:00  11.1  12.4   352  46.0  37.3  71.1   29.45   491
2018-04-23 19:00  17.3  19.6   359  48.4  35.9  61.7   29.46  1321
2018-04-23 18:00  16.3  19.1   351  48.2  35.3  60.6   29.46  1729
2018-04-23 17:00  18.5  21.4   356  50.4  35.2  55.6   29.47  1776
2018-04-23 16:00  16.1  19.1   350  52.0  34.0  49.9   29.49  1946
2018-04-23 15:00  13.2  15.4   353  50.9  35.8  55.8   29.51  2106
2018-04-23 14:00   5.6   8.4    78  68.2  29.4  23.1   29.52  1976
2018-04-23 13:00   8.6  12.1    98  65.5  28.0  24.0   29.54  1460
2018-04-23 12:00   8.6  11.3    99  62.6  27.1  25.6   29.57  1714
2018-04-23 11:00   6.8   9.3    92  58.6  28.5  31.3   29.59  1800
2018-04-23 10:00  11.3  14.4    84  52.5  26.7  36.4   29.62  1459
2018-04-23 09:00   9.7  11.9    89  47.3  27.7  46.1   29.63  1476
2018-04-23 08:00   8.4  10.1    83  42.8  27.6  54.6   29.64   551
2018-04-23 07:00   8.9  10.5    91  41.7  28.0  57.8   29.65    48
2018-04-23 06:00   8.0  10.3    81  41.5  27.6  57.3   29.64     2
2018-04-23 05:00   6.4   7.8    82  42.4  28.3  56.9   29.64     2
2018-04-23 04:00   6.4   7.2    93  43.2  31.0  61.9   29.64     2
2018-04-23 03:00   9.3  10.1   103  45.0  30.5  56.6   29.64     2
2018-04-23 02:00   8.9   9.5   101  46.6  29.0  50.1   29.65     2
2018-04-23 01:00   8.9   9.7    96  48.0  25.8  41.5   29.64     2
2018-04-23 00:00   7.0   8.7    84  46.8  26.0  43.9   29.65     2
2018-04-22 23:00   7.6   8.6    60  50.5  22.4  32.7   29.66     2
2018-04-22 22:00   9.1  10.1    42  51.3  22.6  32.1   29.66     2
2018-04-22 21:00   6.6   8.4    28  52.3  24.6  33.6   29.65     3
2018-04-22 20:00  10.9  12.2   352  46.9  34.5  61.5   29.64   518
2018-04-22 19:00  13.4  15.0   358  48.6  33.1  54.8   29.64  1303
2018-04-22 18:00  15.4  17.7   351  48.2  31.2  51.4   29.66  1637
2018-04-22 17:00  16.5  18.9   350  48.6  27.8  44.2   29.68  1813
2018-04-22 16:00  16.7  19.8   353  48.2  31.0  51.0   29.69  1858
2018-04-22 15:00  10.7  12.1   345  49.1  30.7  48.7   29.72  1951
2018-04-22 14:00  10.1  10.7   344  48.9  30.0  47.6   29.74  1921
2018-04-22 13:00   7.0   7.2   293  48.4  33.1  55.1   29.75  1965
2018-04-22 12:00   4.9   5.1   242  46.4  34.6  63.0   29.77  1833
2018-04-22 11:00   3.1   3.5   234  46.2  33.2  60.1   29.78  1854
2018-04-22 10:00   3.7   4.7   176  44.8  31.7  59.8   29.78  1554
2018-04-22 09:00   8.2   9.1   103  43.5  26.1  50.0   29.76  1353
2018-04-22 08:00   9.9  10.9    99  37.4  28.4  69.7   29.76   891
2018-04-22 07:00   7.8   8.6   104  34.5  28.6  78.6   29.76    42
2018-04-22 06:00   5.8   6.4    97  34.3  28.4  78.8   29.75     2
2018-04-22 05:00   5.6   6.4   104  34.9  29.2  79.4   29.74     2
2018-04-22 04:00   6.8   7.0    97  36.0  28.8  75.0   29.74     2
2018-04-22 03:00   5.4   6.0    91  37.2  26.1  63.7   29.75     2
2018-04-22 02:00   7.4   7.6    88  36.1  27.7  71.0   29.75     2
2018-04-22 01:00   4.9   5.2    71  35.8  28.6  75.0   29.75     2
2018-04-22 00:00   6.4   7.0    77  38.5  25.4  58.9   29.76     2
2018-04-21 23:00   4.3   4.7    80  40.1  24.2  52.7   29.76     2
2018-04-21 22:00   3.3   3.5    57  40.3  26.8  58.2   29.75     2
2018-04-21 21:00   2.3   2.7    25  40.8  33.3  74.2   29.74     3
2018-04-21 20:00   7.4   8.0   353  44.2  26.9  50.1   29.73   519
2018-04-21 19:00  10.3  12.1   350  43.3  29.8  58.5   29.75  1294
2018-04-21 18:00  11.1  11.7   347  43.2  29.8  58.9   29.77  1490
2018-04-21 17:00  11.7  12.2   347  43.2  30.9  61.6   29.77  1312
2018-04-21 16:00   8.0   8.7   343  43.2  32.2  65.0   29.78  1304
2018-04-21 15:00   6.4   7.0   336  42.6  31.7  65.0   29.78  1295
2018-04-21 14:00   3.9   4.7   308  41.4  33.0  71.8   29.80  1483
2018-04-21 13:00   3.9   4.5   324  41.0  33.1  73.1   29.81  1045
2018-04-21 12:00   6.4   6.6   337  40.5  30.9  68.5   29.82   936
2018-04-21 11:00   5.1   5.8   342  39.6  30.7  70.2   29.82  1103
2018-04-21 10:00   2.7   3.7    97  42.4  25.9  51.7   29.83  1068
2018-04-21 09:00   7.8   8.6   102  38.1  25.9  61.0   29.82   642
2018-04-21 08:00   5.8   6.2    87  34.9  26.1  69.9   29.83   367
2018-04-21 07:00   2.1   2.3    37  33.3  23.2  66.1   29.82    17
2018-04-21 06:00   4.7   5.1    69  31.6  26.2  80.2   29.80     2
2018-04-21 05:00   2.7   2.9    57  31.6  25.5  77.9   29.81     2
2018-04-21 04:00   0.2   1.0   107  33.3  22.5  64.4   29.81     2
2018-04-21 03:00   3.5   4.5   341  36.7  20.0  50.4   29.81     2
2018-04-21 02:00   5.2   5.6    90  35.2  22.4  59.2   29.82     2
2018-04-21 01:00   5.8   6.2    91  34.3  26.1  71.5   29.82     2
2018-04-21 00:00   4.7   4.9    74  35.4  26.3  69.0   29.82     2
2018-04-20 23:00   3.5   3.9    41  36.7  23.2  57.9   29.82     2
2018-04-20 22:00   3.1   3.7    37  39.4  14.7  36.2   29.81     2
2018-04-20 21:00   3.3   3.5    12  41.7  12.5  30.0   29.81     3
2018-04-20 20:00   7.0   8.4   358  45.1  18.4  34.0   29.81   584
2018-04-20 19:00   7.6   7.8   342  43.7  28.6  54.9   29.83  1178
2018-04-20 18:00   6.8   7.2   337  45.0  26.5  48.0   29.84  1623
2018-04-20 17:00   7.0   7.8   325  43.5  30.0  58.6   29.85  1621
2018-04-20 16:00   7.4   8.2   319  43.2  28.6  56.0   29.86  1801
2018-04-20 15:00   6.8   7.4   320  43.2  29.9  59.1   29.87  1907
2018-04-20 14:00   5.6   7.0   305  40.5  32.1  71.7   29.88  1822
2018-04-20 13:00   5.2   5.8   328  40.6  33.2  74.5   29.89  1793
2018-04-20 12:00   6.2   6.8   328  39.4  33.8  80.1   29.89  1797
2018-04-20 11:00   3.5   4.1   299  37.0  34.0  88.6   29.88  1724
2018-04-20 10:00   1.4   1.7   258  36.5  32.5  85.1   29.87  1586
2018-04-20 09:00   1.7   1.9   253  36.1  30.4  79.4   29.86  1344
2018-04-20 08:00   1.2   1.6   245  33.4  28.7  82.7   29.86   889
2018-04-20 07:00   1.9   1.9    44  29.7  26.6  88.1   29.84    33
2018-04-20 06:00   2.3   2.5    18  29.7  27.8  92.5   29.82     2
2018-04-20 05:00   2.9   3.1   356  31.8  29.0  89.1   29.80     2
2018-04-20 04:00   3.3   3.3    56  32.2  29.4  89.2   29.79     2
2018-04-20 03:00   5.1   5.6    69  32.7  25.6  74.8   29.78     2
2018-04-20 02:00   7.6   8.7    25  35.2  26.8  70.9   29.79     2
2018-04-20 01:00   6.4   6.8   346  35.6  32.9  89.6   29.78     2
2018-04-20 00:00   5.8   6.2   360  36.5  32.3  84.6   29.77     2
2018-04-19 23:00   8.2   8.9   350  37.0  32.2  82.4   29.76     2
2018-04-19 22:00   9.9  10.7   350  37.4  31.2  78.2   29.75     2
2018-04-19 21:00  13.2  15.6     6  40.6  20.0  43.2   29.75     3
2018-04-19 20:00  14.8  15.9   344  39.0  31.5  74.1   29.74   474